Airfield :
LOGIN :

Register | Disclaimer

   EN    FR    IT 

 










Legend :    VFR   Marginal VFR   IFR   Intensive IFR   Very Intensive IFR
Visi :
Ceiling :
>= 8 km
>= 3000ft
5 to 8 km
1000 to 3000 ft
1500m to 5 km
500 to 1000 ft
800 to 1500m
200 to 500 ft
< 800m
< 200 ft
Symbols :   Thunderstorms  Fog  Heavy snow  Heavy precipitations  Wind > 20 kt
SIGMETs :     Misc.  Thunderstorms  Icing  Turbulence  Mountain Waves  Volcanic Ashes







- Airport Elevation : 506 ft
- IATA code : GOT


ESGG - Landvetter

CURRENT METAR :
  • 270650Z VRB02KT 9999 -DZ FEW009 SCT012 BKN016 08/06 Q0998 REDZ

EXPIRED METARs :
  • 270620Z VRB03KT 9999 -DZ FEW005 BKN024 08/06 Q0998
  • 270550Z 07003KT 030V100 9999 DZ SCT005 BKN025 08/06 Q0998
  • 270520Z 07003KT 9999 -DZ SCT005 BKN029 08/06 Q0998
  • 270450Z 10003KT 070V130 9999 BKN030 07/06 Q0998
  • 270420Z 11004KT 9999 FEW005 BKN030 07/06 Q0998

TAF TAF ESGG
Valid from the 27 at 06:00 until the 28 at 06:00 UTC


270530Z 2706/2806 10004KT 9999 BKN030
PROB40 2706/2710 4000 -RADZ BKN006
PROB40 2713/2716 BKN010
TEMPO 2715/2806 SHRA BKN014CB
No reported NOTAMs for that airfield.



MET'MAP, your aeronautical weather chart ! - Copyright ORBIFLY December 2007 - Disclaimer

ORBIFLY MET'MAP TEAM :

Programming & Development : Alexandra Zaïnal
Concept & Development : Baudouin d'Aumeries
Co-Development & Prog : Marc-Olivier Méhu
Technical & hardware support : Manuel Goepfert

Contact : metmap@orbifly.com




SOURCES & CREDITS :

   NOAA